sensor_id;sensor_type;location;lat;lon;timestamp;P1;durP1;ratioP1;P2;durP2;ratioP2
10216;SDS011;5152;59.674;16.838;2023-09-19T00:00:30;6.43;;;3.00;;
10216;SDS011;5152;59.674;16.838;2023-09-19T00:02:58;4.23;;;2.60;;
10216;SDS011;5152;59.674;16.838;2023-09-19T00:05:27;7.17;;;3.17;;
10216;SDS011;5152;59.674;16.838;2023-09-19T00:07:55;5.77;;;2.87;;
10216;SDS011;5152;59.674;16.838;2023-09-19T00:10:23;7.33;;;2.50;;
10216;SDS011;5152;59.674;16.838;2023-09-19T00:12:52;11.07;;;3.80;;
10216;SDS011;5152;59.674;16.838;2023-09-19T00:15:20;4.50;;;2.73;;
10216;SDS011;5152;59.674;16.838;2023-09-19T00:17:47;5.67;;;2.17;;
10216;SDS011;5152;59.674;16.838;2023-09-19T00:20:14;3.40;;;2.30;;
10216;SDS011;5152;59.674;16.838;2023-09-19T00:22:44;4.97;;;2.80;;
10216;SDS011;5152;59.674;16.838;2023-09-19T00:25:11;7.17;;;3.30;;
10216;SDS011;5152;59.674;16.838;2023-09-19T00:27:40;8.90;;;4.40;;
10216;SDS011;5152;59.674;16.838;2023-09-19T00:30:08;3.47;;;2.80;;
10216;SDS011;5152;59.674;16.838;2023-09-19T00:32:39;2.10;;;1.57;;
10216;SDS011;5152;59.674;16.838;2023-09-19T00:35:07;6.40;;;3.43;;
10216;SDS011;5152;59.674;16.838;2023-09-19T00:37:35;6.40;;;3.20;;
10216;SDS011;5152;59.674;16.838;2023-09-19T00:40:04;3.93;;;2.30;;
10216;SDS011;5152;59.674;16.838;2023-09-19T00:42:34;4.47;;;3.23;;
10216;SDS011;5152;59.674;16.838;2023-09-19T00:45:03;5.07;;;3.50;;
10216;SDS011;5152;59.674;16.838;2023-09-19T00:47:30;8.63;;;4.00;;
10216;SDS011;5152;59.674;16.838;2023-09-19T00:49:57;3.10;;;2.53;;
10216;SDS011;5152;59.674;16.838;2023-09-19T00:52:24;11.20;;;5.20;;
10216;SDS011;5152;59.674;16.838;2023-09-19T00:54:52;7.23;;;3.97;;
10216;SDS011;5152;59.674;16.838;2023-09-19T00:57:21;5.70;;;3.23;;
10216;SDS011;5152;59.674;16.838;2023-09-19T00:59:48;8.97;;;5.17;;
10216;SDS011;5152;59.674;16.838;2023-09-19T01:02:17;5.03;;;3.50;;
10216;SDS011;5152;59.674;16.838;2023-09-19T01:04:44;8.30;;;4.93;;
10216;SDS011;5152;59.674;16.838;2023-09-19T01:07:11;8.83;;;5.40;;
10216;SDS011;5152;59.674;16.838;2023-09-19T01:09:40;5.83;;;4.00;;
10216;SDS011;5152;59.674;16.838;2023-09-19T01:12:07;13.00;;;5.23;;
10216;SDS011;5152;59.674;16.838;2023-09-19T01:14:38;3.70;;;2.23;;
10216;SDS011;5152;59.674;16.838;2023-09-19T01:17:09;6.10;;;3.90;;
10216;SDS011;5152;59.674;16.838;2023-09-19T01:19:56;9.77;;;6.37;;
10216;SDS011;5152;59.674;16.838;2023-09-19T01:22:36;6.67;;;5.07;;
10216;SDS011;5152;59.674;16.838;2023-09-19T01:28:20;11.10;;;4.90;;
10216;SDS011;5152;59.674;16.838;2023-09-19T01:30:50;16.10;;;7.27;;
10216;SDS011;5152;59.674;16.838;2023-09-19T01:33:19;6.17;;;4.40;;
10216;SDS011;5152;59.674;16.838;2023-09-19T01:35:46;5.90;;;4.40;;
10216;SDS011;5152;59.674;16.838;2023-09-19T01:38:14;15.07;;;9.00;;
10216;SDS011;5152;59.674;16.838;2023-09-19T01:40:41;13.87;;;7.87;;
10216;SDS011;5152;59.674;16.838;2023-09-19T01:43:09;8.00;;;4.30;;
10216;SDS011;5152;59.674;16.838;2023-09-19T01:45:42;15.37;;;9.03;;
10216;SDS011;5152;59.674;16.838;2023-09-19T01:48:19;12.53;;;7.83;;
10216;SDS011;5152;59.674;16.838;2023-09-19T01:50:49;7.03;;;5.80;;
10216;SDS011;5152;59.674;16.838;2023-09-19T01:53:24;10.97;;;7.00;;
10216;SDS011;5152;59.674;16.838;2023-09-19T01:55:53;13.27;;;7.97;;
10216;SDS011;5152;59.674;16.838;2023-09-19T01:58:21;6.87;;;5.27;;
10216;SDS011;5152;59.674;16.838;2023-09-19T02:00:53;9.77;;;6.80;;
10216;SDS011;5152;59.674;16.838;2023-09-19T02:03:23;5.20;;;4.13;;
10216;SDS011;5152;59.674;16.838;2023-09-19T02:05:50;9.60;;;6.03;;
10216;SDS011;5152;59.674;16.838;2023-09-19T02:08:19;7.70;;;4.80;;
10216;SDS011;5152;59.674;16.838;2023-09-19T02:10:49;10.60;;;7.13;;
10216;SDS011;5152;59.674;16.838;2023-09-19T02:13:16;17.53;;;7.17;;
10216;SDS011;5152;59.674;16.838;2023-09-19T02:15:44;8.47;;;5.10;;
10216;SDS011;5152;59.674;16.838;2023-09-19T02:18:11;12.47;;;7.73;;
10216;SDS011;5152;59.674;16.838;2023-09-19T02:20:40;8.73;;;5.70;;
10216;SDS011;5152;59.674;16.838;2023-09-19T02:23:07;11.17;;;7.00;;
10216;SDS011;5152;59.674;16.838;2023-09-19T02:25:35;15.10;;;7.40;;
10216;SDS011;5152;59.674;16.838;2023-09-19T02:28:03;6.77;;;4.10;;
10216;SDS011;5152;59.674;16.838;2023-09-19T02:30:30;5.20;;;3.70;;
10216;SDS011;5152;59.674;16.838;2023-09-19T02:32:57;4.03;;;3.10;;
10216;SDS011;5152;59.674;16.838;2023-09-19T02:35:26;13.67;;;10.27;;
10216;SDS011;5152;59.674;16.838;2023-09-19T02:37:55;13.43;;;8.20;;
10216;SDS011;5152;59.674;16.838;2023-09-19T02:40:22;12.17;;;7.93;;
10216;SDS011;5152;59.674;16.838;2023-09-19T02:42:52;9.80;;;5.67;;
10216;SDS011;5152;59.674;16.838;2023-09-19T02:45:20;17.30;;;11.13;;
10216;SDS011;5152;59.674;16.838;2023-09-19T02:47:47;18.40;;;11.43;;
10216;SDS011;5152;59.674;16.838;2023-09-19T02:50:15;7.03;;;5.90;;
10216;SDS011;5152;59.674;16.838;2023-09-19T02:52:42;9.23;;;6.37;;
10216;SDS011;5152;59.674;16.838;2023-09-19T02:55:12;7.27;;;4.03;;
10216;SDS011;5152;59.674;16.838;2023-09-19T02:57:39;16.03;;;7.33;;
10216;SDS011;5152;59.674;16.838;2023-09-19T03:00:08;6.07;;;4.30;;
10216;SDS011;5152;59.674;16.838;2023-09-19T03:02:37;22.70;;;12.50;;
10216;SDS011;5152;59.674;16.838;2023-09-19T03:05:06;5.60;;;4.90;;
10216;SDS011;5152;59.674;16.838;2023-09-19T03:07:36;18.57;;;12.07;;
10216;SDS011;5152;59.674;16.838;2023-09-19T03:10:04;21.80;;;14.90;;
10216;SDS011;5152;59.674;16.838;2023-09-19T03:12:32;20.90;;;13.57;;
10216;SDS011;5152;59.674;16.838;2023-09-19T03:15:00;17.87;;;13.17;;
10216;SDS011;5152;59.674;16.838;2023-09-19T03:17:27;7.03;;;5.63;;
10216;SDS011;5152;59.674;16.838;2023-09-19T03:19:53;16.40;;;12.40;;
10216;SDS011;5152;59.674;16.838;2023-09-19T03:22:22;24.93;;;17.90;;
10216;SDS011;5152;59.674;16.838;2023-09-19T03:24:49;25.33;;;17.47;;
10216;SDS011;5152;59.674;16.838;2023-09-19T03:27:17;26.97;;;17.60;;
10216;SDS011;5152;59.674;16.838;2023-09-19T03:29:47;14.00;;;11.13;;
10216;SDS011;5152;59.674;16.838;2023-09-19T03:32:14;18.43;;;12.43;;
10216;SDS011;5152;59.674;16.838;2023-09-19T03:34:41;21.00;;;15.03;;
10216;SDS011;5152;59.674;16.838;2023-09-19T03:37:08;25.90;;;17.43;;
10216;SDS011;5152;59.674;16.838;2023-09-19T03:39:35;28.40;;;16.10;;
10216;SDS011;5152;59.674;16.838;2023-09-19T03:42:02;14.20;;;10.70;;
10216;SDS011;5152;59.674;16.838;2023-09-19T03:44:30;15.90;;;12.60;;
10216;SDS011;5152;59.674;16.838;2023-09-19T03:46:58;17.80;;;13.20;;
10216;SDS011;5152;59.674;16.838;2023-09-19T03:49:25;17.70;;;13.20;;
10216;SDS011;5152;59.674;16.838;2023-09-19T03:51:52;6.73;;;5.13;;
10216;SDS011;5152;59.674;16.838;2023-09-19T03:54:19;20.50;;;14.77;;
10216;SDS011;5152;59.674;16.838;2023-09-19T03:56:46;36.10;;;19.10;;
10216;SDS011;5152;59.674;16.838;2023-09-19T03:59:13;34.17;;;18.67;;
10216;SDS011;5152;59.674;16.838;2023-09-19T04:01:40;23.90;;;16.40;;
10216;SDS011;5152;59.674;16.838;2023-09-19T04:04:09;19.90;;;15.50;;
10216;SDS011;5152;59.674;16.838;2023-09-19T04:06:36;35.77;;;18.40;;
10216;SDS011;5152;59.674;16.838;2023-09-19T04:09:03;22.83;;;17.50;;
10216;SDS011;5152;59.674;16.838;2023-09-19T04:11:32;24.03;;;12.37;;
10216;SDS011;5152;59.674;16.838;2023-09-19T04:13:58;21.30;;;13.00;;
10216;SDS011;5152;59.674;16.838;2023-09-19T04:16:25;20.07;;;11.90;;
10216;SDS011;5152;59.674;16.838;2023-09-19T04:18:52;19.40;;;15.20;;
10216;SDS011;5152;59.674;16.838;2023-09-19T04:21:21;29.73;;;20.27;;
10216;SDS011;5152;59.674;16.838;2023-09-19T04:23:47;27.60;;;18.13;;
10216;SDS011;5152;59.674;16.838;2023-09-19T04:26:14;19.23;;;12.73;;
10216;SDS011;5152;59.674;16.838;2023-09-19T04:28:42;20.63;;;12.77;;
10216;SDS011;5152;59.674;16.838;2023-09-19T04:31:09;32.50;;;19.83;;
10216;SDS011;5152;59.674;16.838;2023-09-19T04:33:37;36.80;;;22.70;;
10216;SDS011;5152;59.674;16.838;2023-09-19T04:36:04;21.43;;;14.97;;
10216;SDS011;5152;59.674;16.838;2023-09-19T04:38:33;33.10;;;21.97;;
10216;SDS011;5152;59.674;16.838;2023-09-19T04:41:00;35.40;;;23.00;;
10216;SDS011;5152;59.674;16.838;2023-09-19T04:43:27;29.97;;;17.50;;
10216;SDS011;5152;59.674;16.838;2023-09-19T04:45:55;24.27;;;17.57;;
10216;SDS011;5152;59.674;16.838;2023-09-19T04:48:25;33.47;;;22.80;;
10216;SDS011;5152;59.674;16.838;2023-09-19T04:50:54;22.53;;;14.67;;
10216;SDS011;5152;59.674;16.838;2023-09-19T04:53:21;27.60;;;18.37;;
10216;SDS011;5152;59.674;16.838;2023-09-19T04:55:51;20.30;;;14.63;;
10216;SDS011;5152;59.674;16.838;2023-09-19T04:58:20;24.23;;;14.97;;
10216;SDS011;5152;59.674;16.838;2023-09-19T05:00:47;31.63;;;18.03;;
10216;SDS011;5152;59.674;16.838;2023-09-19T05:03:16;29.77;;;21.33;;
10216;SDS011;5152;59.674;16.838;2023-09-19T05:05:43;31.53;;;20.87;;
10216;SDS011;5152;59.674;16.838;2023-09-19T05:08:09;26.00;;;18.30;;
10216;SDS011;5152;59.674;16.838;2023-09-19T05:10:36;25.13;;;18.00;;
10216;SDS011;5152;59.674;16.838;2023-09-19T05:13:05;22.10;;;13.07;;
10216;SDS011;5152;59.674;16.838;2023-09-19T05:15:32;38.47;;;24.63;;
10216;SDS011;5152;59.674;16.838;2023-09-19T05:18:00;25.60;;;17.17;;
10216;SDS011;5152;59.674;16.838;2023-09-19T05:20:28;36.27;;;25.50;;
10216;SDS011;5152;59.674;16.838;2023-09-19T05:22:58;41.47;;;26.00;;
10216;SDS011;5152;59.674;16.838;2023-09-19T05:25:27;40.80;;;23.47;;
10216;SDS011;5152;59.674;16.838;2023-09-19T05:27:55;35.67;;;24.70;;
10216;SDS011;5152;59.674;16.838;2023-09-19T05:30:25;30.17;;;21.10;;
10216;SDS011;5152;59.674;16.838;2023-09-19T05:32:54;42.17;;;26.77;;
10216;SDS011;5152;59.674;16.838;2023-09-19T05:35:22;33.53;;;20.97;;
10216;SDS011;5152;59.674;16.838;2023-09-19T05:37:50;40.57;;;23.07;;
10216;SDS011;5152;59.674;16.838;2023-09-19T05:40:17;33.00;;;22.53;;
10216;SDS011;5152;59.674;16.838;2023-09-19T05:42:44;34.53;;;22.37;;
10216;SDS011;5152;59.674;16.838;2023-09-19T05:45:11;37.70;;;24.83;;
10216;SDS011;5152;59.674;16.838;2023-09-19T05:47:40;29.20;;;17.70;;
10216;SDS011;5152;59.674;16.838;2023-09-19T05:50:09;39.13;;;23.50;;
10216;SDS011;5152;59.674;16.838;2023-09-19T05:52:36;42.43;;;26.57;;
10216;SDS011;5152;59.674;16.838;2023-09-19T05:55:03;29.60;;;19.13;;
10216;SDS011;5152;59.674;16.838;2023-09-19T05:57:32;39.07;;;24.73;;
10216;SDS011;5152;59.674;16.838;2023-09-19T05:59:59;41.53;;;27.67;;
10216;SDS011;5152;59.674;16.838;2023-09-19T06:02:26;44.10;;;27.63;;
10216;SDS011;5152;59.674;16.838;2023-09-19T06:04:56;27.63;;;18.30;;
10216;SDS011;5152;59.674;16.838;2023-09-19T06:07:24;32.50;;;21.13;;
10216;SDS011;5152;59.674;16.838;2023-09-19T06:09:51;41.43;;;25.00;;
10216;SDS011;5152;59.674;16.838;2023-09-19T06:12:18;22.83;;;15.97;;
10216;SDS011;5152;59.674;16.838;2023-09-19T06:14:45;41.13;;;25.47;;
10216;SDS011;5152;59.674;16.838;2023-09-19T06:17:13;30.27;;;22.00;;
10216;SDS011;5152;59.674;16.838;2023-09-19T06:19:40;35.40;;;24.90;;
10216;SDS011;5152;59.674;16.838;2023-09-19T06:22:15;30.00;;;18.50;;
10216;SDS011;5152;59.674;16.838;2023-09-19T06:24:44;39.73;;;25.27;;
10216;SDS011;5152;59.674;16.838;2023-09-19T06:27:12;38.77;;;24.87;;
10216;SDS011;5152;59.674;16.838;2023-09-19T06:29:39;41.47;;;24.77;;
10216;SDS011;5152;59.674;16.838;2023-09-19T06:32:06;29.23;;;17.80;;
10216;SDS011;5152;59.674;16.838;2023-09-19T06:34:35;28.53;;;17.87;;
10216;SDS011;5152;59.674;16.838;2023-09-19T06:37:02;36.60;;;23.17;;
10216;SDS011;5152;59.674;16.838;2023-09-19T06:39:32;19.47;;;13.07;;
10216;SDS011;5152;59.674;16.838;2023-09-19T06:41:59;28.30;;;20.17;;
10216;SDS011;5152;59.674;16.838;2023-09-19T06:44:27;26.53;;;17.97;;
10216;SDS011;5152;59.674;16.838;2023-09-19T06:46:54;28.43;;;19.83;;
10216;SDS011;5152;59.674;16.838;2023-09-19T06:49:21;27.27;;;17.47;;
10216;SDS011;5152;59.674;16.838;2023-09-19T06:51:48;19.87;;;14.73;;
10216;SDS011;5152;59.674;16.838;2023-09-19T06:54:15;20.90;;;14.47;;
10216;SDS011;5152;59.674;16.838;2023-09-19T06:56:44;35.53;;;19.97;;
10216;SDS011;5152;59.674;16.838;2023-09-19T06:59:11;28.30;;;19.73;;
10216;SDS011;5152;59.674;16.838;2023-09-19T07:01:39;22.40;;;12.93;;
10216;SDS011;5152;59.674;16.838;2023-09-19T07:04:06;28.10;;;18.43;;
10216;SDS011;5152;59.674;16.838;2023-09-19T07:06:33;29.30;;;19.67;;
10216;SDS011;5152;59.674;16.838;2023-09-19T07:09:00;26.70;;;19.30;;
10216;SDS011;5152;59.674;16.838;2023-09-19T07:11:27;28.93;;;20.03;;
10216;SDS011;5152;59.674;16.838;2023-09-19T07:13:57;25.57;;;17.03;;
10216;SDS011;5152;59.674;16.838;2023-09-19T07:16:24;28.30;;;19.30;;
10216;SDS011;5152;59.674;16.838;2023-09-19T07:18:55;22.10;;;17.53;;
10216;SDS011;5152;59.674;16.838;2023-09-19T07:21:22;24.90;;;16.13;;
10216;SDS011;5152;59.674;16.838;2023-09-19T07:23:49;30.93;;;20.57;;
10216;SDS011;5152;59.674;16.838;2023-09-19T07:26:16;32.97;;;21.23;;
10216;SDS011;5152;59.674;16.838;2023-09-19T07:28:43;31.93;;;19.70;;
10216;SDS011;5152;59.674;16.838;2023-09-19T07:31:11;28.73;;;19.20;;
10216;SDS011;5152;59.674;16.838;2023-09-19T07:33:39;26.80;;;15.47;;
10216;SDS011;5152;59.674;16.838;2023-09-19T07:36:09;21.87;;;15.57;;
10216;SDS011;5152;59.674;16.838;2023-09-19T07:38:38;30.47;;;19.37;;
10216;SDS011;5152;59.674;16.838;2023-09-19T07:41:05;18.80;;;13.60;;
10216;SDS011;5152;59.674;16.838;2023-09-19T07:43:34;15.60;;;12.40;;
10216;SDS011;5152;59.674;16.838;2023-09-19T07:46:02;27.13;;;16.90;;
10216;SDS011;5152;59.674;16.838;2023-09-19T07:48:33;24.33;;;12.93;;
10216;SDS011;5152;59.674;16.838;2023-09-19T07:51:04;24.17;;;14.50;;
10216;SDS011;5152;59.674;16.838;2023-09-19T07:53:31;27.40;;;17.57;;
10216;SDS011;5152;59.674;16.838;2023-09-19T07:56:03;17.60;;;14.47;;
10216;SDS011;5152;59.674;16.838;2023-09-19T07:58:30;20.87;;;15.30;;
10216;SDS011;5152;59.674;16.838;2023-09-19T08:01:02;24.77;;;15.50;;
10216;SDS011;5152;59.674;16.838;2023-09-19T08:03:29;21.63;;;17.17;;
10216;SDS011;5152;59.674;16.838;2023-09-19T08:05:57;24.97;;;17.57;;
10216;SDS011;5152;59.674;16.838;2023-09-19T08:08:24;21.07;;;15.00;;
10216;SDS011;5152;59.674;16.838;2023-09-19T08:10:52;22.90;;;16.17;;
10216;SDS011;5152;59.674;16.838;2023-09-19T08:13:21;23.73;;;14.57;;
10216;SDS011;5152;59.674;16.838;2023-09-19T08:15:48;21.03;;;14.70;;
10216;SDS011;5152;59.674;16.838;2023-09-19T08:18:16;22.40;;;15.27;;
10216;SDS011;5152;59.674;16.838;2023-09-19T08:20:43;20.87;;;14.30;;
10216;SDS011;5152;59.674;16.838;2023-09-19T08:23:16;23.30;;;13.97;;
10216;SDS011;5152;59.674;16.838;2023-09-19T08:25:45;17.67;;;13.63;;
10216;SDS011;5152;59.674;16.838;2023-09-19T08:28:12;12.97;;;11.33;;
10216;SDS011;5152;59.674;16.838;2023-09-19T08:30:43;24.47;;;13.63;;
10216;SDS011;5152;59.674;16.838;2023-09-19T08:33:10;19.03;;;13.90;;
10216;SDS011;5152;59.674;16.838;2023-09-19T08:35:36;19.53;;;11.97;;
10216;SDS011;5152;59.674;16.838;2023-09-19T08:38:04;23.10;;;15.23;;
10216;SDS011;5152;59.674;16.838;2023-09-19T08:40:34;19.47;;;11.97;;
10216;SDS011;5152;59.674;16.838;2023-09-19T08:43:05;17.20;;;12.67;;
10216;SDS011;5152;59.674;16.838;2023-09-19T08:45:32;9.67;;;7.50;;
10216;SDS011;5152;59.674;16.838;2023-09-19T08:48:01;16.80;;;10.70;;
10216;SDS011;5152;59.674;16.838;2023-09-19T08:50:42;15.07;;;10.80;;
10216;SDS011;5152;59.674;16.838;2023-09-19T08:53:10;9.27;;;8.07;;
10216;SDS011;5152;59.674;16.838;2023-09-19T08:55:38;17.37;;;11.93;;
10216;SDS011;5152;59.674;16.838;2023-09-19T08:58:09;15.27;;;11.03;;
10216;SDS011;5152;59.674;16.838;2023-09-19T09:00:38;16.93;;;10.20;;
10216;SDS011;5152;59.674;16.838;2023-09-19T09:03:07;15.43;;;10.47;;
10216;SDS011;5152;59.674;16.838;2023-09-19T09:05:35;13.17;;;10.37;;
10216;SDS011;5152;59.674;16.838;2023-09-19T09:08:05;14.60;;;10.40;;
10216;SDS011;5152;59.674;16.838;2023-09-19T09:10:32;12.00;;;9.60;;
10216;SDS011;5152;59.674;16.838;2023-09-19T09:13:01;17.07;;;9.17;;
10216;SDS011;5152;59.674;16.838;2023-09-19T09:15:29;12.97;;;10.10;;
10216;SDS011;5152;59.674;16.838;2023-09-19T09:17:58;9.10;;;7.67;;
10216;SDS011;5152;59.674;16.838;2023-09-19T09:20:25;20.27;;;9.77;;
10216;SDS011;5152;59.674;16.838;2023-09-19T09:22:52;10.43;;;8.33;;
10216;SDS011;5152;59.674;16.838;2023-09-19T09:25:20;12.43;;;8.77;;
10216;SDS011;5152;59.674;16.838;2023-09-19T09:27:58;12.60;;;8.27;;
10216;SDS011;5152;59.674;16.838;2023-09-19T09:30:34;8.83;;;6.23;;
10216;SDS011;5152;59.674;16.838;2023-09-19T09:33:08;13.13;;;6.90;;
10216;SDS011;5152;59.674;16.838;2023-09-19T09:35:36;8.33;;;6.60;;
10216;SDS011;5152;59.674;16.838;2023-09-19T09:38:04;8.33;;;6.00;;
10216;SDS011;5152;59.674;16.838;2023-09-19T09:40:45;8.13;;;5.90;;
10216;SDS011;5152;59.674;16.838;2023-09-19T09:43:24;11.90;;;6.13;;
10216;SDS011;5152;59.674;16.838;2023-09-19T09:46:09;10.53;;;6.80;;
10216;SDS011;5152;59.674;16.838;2023-09-19T09:49:00;7.10;;;5.40;;
10216;SDS011;5152;59.674;16.838;2023-09-19T09:51:58;12.73;;;5.03;;
10216;SDS011;5152;59.674;16.838;2023-09-19T09:54:30;9.43;;;5.17;;
10216;SDS011;5152;59.674;16.838;2023-09-19T09:57:02;7.30;;;4.57;;
10216;SDS011;5152;59.674;16.838;2023-09-19T09:59:51;6.67;;;4.20;;
10216;SDS011;5152;59.674;16.838;2023-09-19T10:02:25;8.13;;;4.50;;
10216;SDS011;5152;59.674;16.838;2023-09-19T10:04:55;6.00;;;4.13;;
10216;SDS011;5152;59.674;16.838;2023-09-19T10:07:38;5.83;;;3.83;;
10216;SDS011;5152;59.674;16.838;2023-09-19T10:10:08;9.23;;;4.10;;
10216;SDS011;5152;59.674;16.838;2023-09-19T10:12:51;7.47;;;4.10;;
10216;SDS011;5152;59.674;16.838;2023-09-19T10:15:21;6.30;;;3.77;;
10216;SDS011;5152;59.674;16.838;2023-09-19T10:17:56;5.17;;;3.83;;
10216;SDS011;5152;59.674;16.838;2023-09-19T10:20:24;3.63;;;3.33;;
10216;SDS011;5152;59.674;16.838;2023-09-19T10:23:05;4.97;;;3.10;;
10216;SDS011;5152;59.674;16.838;2023-09-19T10:25:38;6.63;;;2.80;;
10216;SDS011;5152;59.674;16.838;2023-09-19T10:28:06;3.67;;;2.90;;
10216;SDS011;5152;59.674;16.838;2023-09-19T10:30:37;7.13;;;2.67;;
10216;SDS011;5152;59.674;16.838;2023-09-19T10:33:11;4.20;;;2.70;;
10216;SDS011;5152;59.674;16.838;2023-09-19T10:35:38;4.37;;;2.80;;
10216;SDS011;5152;59.674;16.838;2023-09-19T10:38:07;5.73;;;2.60;;
10216;SDS011;5152;59.674;16.838;2023-09-19T10:40:36;3.93;;;2.80;;
10216;SDS011;5152;59.674;16.838;2023-09-19T10:43:08;3.57;;;2.30;;
10216;SDS011;5152;59.674;16.838;2023-09-19T10:45:38;5.93;;;2.17;;
10216;SDS011;5152;59.674;16.838;2023-09-19T10:48:07;5.60;;;2.40;;
10216;SDS011;5152;59.674;16.838;2023-09-19T10:50:36;4.37;;;2.47;;
10216;SDS011;5152;59.674;16.838;2023-09-19T10:53:10;2.50;;;2.20;;
10216;SDS011;5152;59.674;16.838;2023-09-19T10:55:38;2.90;;;2.17;;
10216;SDS011;5152;59.674;16.838;2023-09-19T10:58:05;4.37;;;2.17;;
10216;SDS011;5152;59.674;16.838;2023-09-19T11:00:52;3.97;;;2.20;;
10216;SDS011;5152;59.674;16.838;2023-09-19T11:03:20;3.57;;;2.50;;
10216;SDS011;5152;59.674;16.838;2023-09-19T11:06:03;2.80;;;1.90;;
10216;SDS011;5152;59.674;16.838;2023-09-19T11:11:45;4.43;;;2.03;;
10216;SDS011;5152;59.674;16.838;2023-09-19T11:14:37;3.17;;;2.07;;
10216;SDS011;5152;59.674;16.838;2023-09-19T11:20:19;2.57;;;2.00;;
10216;SDS011;5152;59.674;16.838;2023-09-19T11:23:23;2.27;;;1.67;;
10216;SDS011;5152;59.674;16.838;2023-09-19T11:25:52;3.60;;;1.73;;
10216;SDS011;5152;59.674;16.838;2023-09-19T11:28:32;3.10;;;1.53;;
10216;SDS011;5152;59.674;16.838;2023-09-19T11:34:39;5.33;;;1.50;;
10216;SDS011;5152;59.674;16.838;2023-09-19T11:40:37;2.10;;;1.50;;
10216;SDS011;5152;59.674;16.838;2023-09-19T11:46:05;3.80;;;1.67;;
10216;SDS011;5152;59.674;16.838;2023-09-19T11:48:34;2.27;;;1.50;;
10216;SDS011;5152;59.674;16.838;2023-09-19T11:53:49;6.23;;;1.67;;
10216;SDS011;5152;59.674;16.838;2023-09-19T11:56:19;3.07;;;1.27;;
10216;SDS011;5152;59.674;16.838;2023-09-19T11:58:49;3.77;;;1.20;;
10216;SDS011;5152;59.674;16.838;2023-09-19T12:01:21;1.97;;;1.20;;
10216;SDS011;5152;59.674;16.838;2023-09-19T12:03:52;3.20;;;1.57;;
10216;SDS011;5152;59.674;16.838;2023-09-19T12:06:22;4.33;;;1.20;;
10216;SDS011;5152;59.674;16.838;2023-09-19T12:08:49;1.20;;;1.03;;
10216;SDS011;5152;59.674;16.838;2023-09-19T12:11:20;1.73;;;1.10;;
10216;SDS011;5152;59.674;16.838;2023-09-19T12:13:48;2.43;;;1.37;;
10216;SDS011;5152;59.674;16.838;2023-09-19T12:16:16;2.70;;;1.33;;
10216;SDS011;5152;59.674;16.838;2023-09-19T12:18:47;9.77;;;1.20;;
10216;SDS011;5152;59.674;16.838;2023-09-19T12:21:22;3.07;;;1.47;;
10216;SDS011;5152;59.674;16.838;2023-09-19T12:24:04;2.57;;;1.40;;
10216;SDS011;5152;59.674;16.838;2023-09-19T12:26:39;2.07;;;1.20;;
10216;SDS011;5152;59.674;16.838;2023-09-19T12:29:18;1.27;;;1.17;;
10216;SDS011;5152;59.674;16.838;2023-09-19T12:31:49;2.63;;;1.40;;
10216;SDS011;5152;59.674;16.838;2023-09-19T12:34:23;2.00;;;1.33;;
10216;SDS011;5152;59.674;16.838;2023-09-19T12:37:08;3.87;;;1.10;;
10216;SDS011;5152;59.674;16.838;2023-09-19T12:39:41;2.30;;;1.13;;
10216;SDS011;5152;59.674;16.838;2023-09-19T12:42:11;4.70;;;1.53;;
10216;SDS011;5152;59.674;16.838;2023-09-19T12:44:43;3.80;;;1.70;;
10216;SDS011;5152;59.674;16.838;2023-09-19T12:47:11;2.53;;;1.50;;
10216;SDS011;5152;59.674;16.838;2023-09-19T12:52:44;2.07;;;1.23;;
10216;SDS011;5152;59.674;16.838;2023-09-19T12:55:22;2.40;;;1.30;;
10216;SDS011;5152;59.674;16.838;2023-09-19T12:57:58;3.70;;;1.43;;
10216;SDS011;5152;59.674;16.838;2023-09-19T13:00:36;2.87;;;1.63;;
10216;SDS011;5152;59.674;16.838;2023-09-19T13:03:16;5.63;;;1.60;;
10216;SDS011;5152;59.674;16.838;2023-09-19T13:05:47;2.80;;;1.63;;
10216;SDS011;5152;59.674;16.838;2023-09-19T13:08:19;2.73;;;1.70;;
10216;SDS011;5152;59.674;16.838;2023-09-19T13:11:06;4.50;;;1.63;;
10216;SDS011;5152;59.674;16.838;2023-09-19T13:13:39;3.30;;;1.30;;
10216;SDS011;5152;59.674;16.838;2023-09-19T13:16:07;5.00;;;2.00;;
10216;SDS011;5152;59.674;16.838;2023-09-19T13:18:45;3.97;;;1.33;;
10216;SDS011;5152;59.674;16.838;2023-09-19T13:21:15;1.50;;;1.10;;
10216;SDS011;5152;59.674;16.838;2023-09-19T13:23:49;4.40;;;1.30;;
10216;SDS011;5152;59.674;16.838;2023-09-19T13:26:17;3.67;;;1.37;;
10216;SDS011;5152;59.674;16.838;2023-09-19T13:28:45;8.17;;;1.27;;
10216;SDS011;5152;59.674;16.838;2023-09-19T13:31:14;5.20;;;1.63;;
10216;SDS011;5152;59.674;16.838;2023-09-19T13:33:45;4.57;;;1.87;;
10216;SDS011;5152;59.674;16.838;2023-09-19T13:36:12;2.67;;;1.43;;
10216;SDS011;5152;59.674;16.838;2023-09-19T13:38:39;4.70;;;1.57;;
10216;SDS011;5152;59.674;16.838;2023-09-19T13:41:08;5.23;;;1.50;;
10216;SDS011;5152;59.674;16.838;2023-09-19T13:43:35;4.20;;;1.73;;
10216;SDS011;5152;59.674;16.838;2023-09-19T13:46:03;8.23;;;1.80;;
10216;SDS011;5152;59.674;16.838;2023-09-19T13:48:32;2.87;;;1.43;;
10216;SDS011;5152;59.674;16.838;2023-09-19T13:51:01;5.23;;;1.67;;
10216;SDS011;5152;59.674;16.838;2023-09-19T13:53:28;5.53;;;1.90;;
10216;SDS011;5152;59.674;16.838;2023-09-19T13:55:55;6.17;;;1.73;;
10216;SDS011;5152;59.674;16.838;2023-09-19T13:58:22;3.43;;;1.63;;
10216;SDS011;5152;59.674;16.838;2023-09-19T14:00:49;5.37;;;1.63;;
10216;SDS011;5152;59.674;16.838;2023-09-19T14:03:21;4.67;;;1.43;;
10216;SDS011;5152;59.674;16.838;2023-09-19T14:05:49;4.37;;;1.50;;
10216;SDS011;5152;59.674;16.838;2023-09-19T14:08:17;4.30;;;1.50;;
10216;SDS011;5152;59.674;16.838;2023-09-19T14:10:44;4.40;;;1.73;;
10216;SDS011;5152;59.674;16.838;2023-09-19T14:13:10;12.03;;;2.07;;
10216;SDS011;5152;59.674;16.838;2023-09-19T14:15:38;8.03;;;1.67;;
10216;SDS011;5152;59.674;16.838;2023-09-19T14:18:05;4.13;;;1.40;;
10216;SDS011;5152;59.674;16.838;2023-09-19T14:20:37;5.60;;;1.43;;
10216;SDS011;5152;59.674;16.838;2023-09-19T14:23:04;3.27;;;1.50;;
10216;SDS011;5152;59.674;16.838;2023-09-19T14:25:33;2.77;;;1.47;;
10216;SDS011;5152;59.674;16.838;2023-09-19T14:28:00;2.20;;;1.50;;
10216;SDS011;5152;59.674;16.838;2023-09-19T14:30:27;5.37;;;1.60;;
10216;SDS011;5152;59.674;16.838;2023-09-19T14:32:55;3.53;;;1.47;;
10216;SDS011;5152;59.674;16.838;2023-09-19T14:35:23;8.23;;;1.53;;
10216;SDS011;5152;59.674;16.838;2023-09-19T14:37:51;7.33;;;1.60;;
10216;SDS011;5152;59.674;16.838;2023-09-19T14:40:19;7.47;;;1.67;;
10216;SDS011;5152;59.674;16.838;2023-09-19T14:42:47;5.03;;;1.50;;
10216;SDS011;5152;59.674;16.838;2023-09-19T14:45:15;8.37;;;1.57;;
10216;SDS011;5152;59.674;16.838;2023-09-19T14:47:43;2.50;;;1.30;;
10216;SDS011;5152;59.674;16.838;2023-09-19T14:50:10;5.47;;;2.03;;
10216;SDS011;5152;59.674;16.838;2023-09-19T14:52:37;3.23;;;1.53;;
10216;SDS011;5152;59.674;16.838;2023-09-19T14:55:06;5.17;;;1.77;;
10216;SDS011;5152;59.674;16.838;2023-09-19T14:57:39;3.70;;;1.17;;
10216;SDS011;5152;59.674;16.838;2023-09-19T15:00:08;3.30;;;1.50;;
10216;SDS011;5152;59.674;16.838;2023-09-19T15:02:37;4.30;;;1.83;;
10216;SDS011;5152;59.674;16.838;2023-09-19T15:05:05;4.77;;;1.47;;
10216;SDS011;5152;59.674;16.838;2023-09-19T15:07:33;6.90;;;1.50;;
10216;SDS011;5152;59.674;16.838;2023-09-19T15:10:01;5.77;;;1.60;;
10216;SDS011;5152;59.674;16.838;2023-09-19T15:12:30;2.37;;;1.40;;
10216;SDS011;5152;59.674;16.838;2023-09-19T15:14:57;9.00;;;1.30;;